Time;durP1;ratioP1;P1;durP2;ratioP2;P2;SDS_P1;SDS_P2;PMS_P1;PMS_P2;Temp;Humidity;BMP_temperature;BMP_pressure;BME280_temperature;BME280_humidity;BME280_pressure;Samples;Min_cycle;Max_cycle;Signal;HPM_P1;HPM_P2
2021/11/21 00:00:18;;;;;;;15.80;10.45;;;;;;;3.68;100.00;99054.53;5018254;28;20054;-83
2021/11/21 00:02:49;;;;;;;17.67;10.35;;;;;;;3.53;100.00;99022.69;5033348;28;20103;-83
2021/11/21 00:05:20;;;;;;;20.15;11.18;;;;;;;3.64;100.00;99026.22;5033614;28;20057;-83
2021/11/21 00:07:47;;;;;;;21.25;11.60;;;;;;;3.63;100.00;99019.13;5035168;28;20085;-83
2021/11/21 00:10:17;;;;;;;17.20;10.20;;;;;;;3.69;100.00;99021.28;5034619;28;20158;-83
2021/11/21 00:12:46;;;;;;;20.67;10.90;;;;;;;3.80;100.00;99026.47;5032756;28;20503;-83
2021/11/21 00:15:14;;;;;;;21.98;11.68;;;;;;;3.83;100.00;99019.97;5033507;28;20048;-83
2021/11/21 00:17:44;;;;;;;21.83;11.15;;;;;;;3.72;100.00;99018.31;5032986;28;20063;-83
2021/11/21 00:20:17;;;;;;;20.50;11.32;;;;;;;3.47;100.00;99012.53;5032848;28;20564;-83
2021/11/21 00:22:48;;;;;;;17.17;10.30;;;;;;;3.41;100.00;99006.88;5033660;28;20053;-83
2021/11/21 00:25:17;;;;;;;19.20;10.90;;;;;;;3.41;100.00;99007.72;5033984;28;20058;-83
2021/11/21 00:27:51;;;;;;;18.98;10.32;;;;;;;3.40;100.00;99015.94;5028008;28;20053;-83
2021/11/21 00:30:20;;;;;;;20.08;11.07;;;;;;;3.35;100.00;99001.06;5031563;28;20489;-83
2021/11/21 00:32:47;;;;;;;20.10;10.63;;;;;;;3.41;100.00;98994.28;5033546;28;20053;-83
2021/11/21 00:35:25;;;;;;;19.73;10.95;;;;;;;3.59;100.00;99023.13;5033487;28;20424;-82
2021/11/21 00:37:53;;;;;;;20.25;10.85;;;;;;;3.49;100.00;98994.44;5032740;28;20057;-83
2021/11/21 00:40:30;;;;;;;19.20;10.95;;;;;;;3.67;100.00;99012.50;5033078;28;20046;-83
2021/11/21 00:43:01;;;;;;;22.08;11.82;;;;;;;3.68;100.00;98996.22;5033341;28;20124;-83
2021/11/21 00:45:28;;;;;;;;;;;;;;;3.82;100.00;98996.75;5034043;28;20115;-83
2021/11/21 00:47:58;;;;;;;19.60;11.05;;;;;;;3.88;100.00;98997.03;5033212;28;19949;-83
2021/11/21 00:50:31;;;;;;;26.02;12.20;;;;;;;3.84;100.00;98990.25;5033249;28;20481;-83
2021/11/21 00:53:02;;;;;;;21.50;11.00;;;;;;;3.68;100.00;98968.50;5026837;28;20045;-86
2021/11/21 00:56:29;;;;;;;24.45;11.60;;;;;;;3.64;100.00;98967.91;5034025;28;20128;-88
2021/11/21 00:58:57;;;;;;;20.80;11.98;;;;;;;3.77;100.00;98988.28;5033136;28;20092;-87
2021/11/21 01:01:42;;;;;;;20.60;11.82;;;;;;;3.66;100.00;98975.88;5023049;28;20060;-87
2021/11/21 01:04:27;;;;;;;20.48;10.63;;;;;;;3.60;100.00;98979.97;5027731;28;20057;-88
2021/11/21 01:06:56;;;;;;;20.02;11.73;;;;;;;3.65;100.00;98987.59;5030909;28;20053;-83
2021/11/21 01:09:24;;;;;;;20.15;11.10;;;;;;;3.70;100.00;98986.19;5031752;28;20136;-83
2021/11/21 01:11:51;;;;;;;22.17;11.77;;;;;;;3.59;100.00;98972.91;5032863;28;20432;-83
2021/11/21 01:14:28;;;;;;;22.50;12.13;;;;;;;3.54;100.00;98970.63;5032863;28;20057;-83
2021/11/21 01:16:57;;;;;;;24.83;13.02;;;;;;;3.58;100.00;98968.50;5033287;28;20049;-83
2021/11/21 01:19:24;;;;;;;23.60;11.80;;;;;;;3.60;100.00;98966.53;5032088;28;20045;-83
2021/11/21 01:21:58;;;;;;;18.63;11.05;;;;;;;3.65;100.00;98971.47;5033085;28;20125;-83
2021/11/21 01:24:30;;;;;;;23.10;11.68;;;;;;;3.77;100.00;98996.34;5013299;28;20398;-83
2021/11/21 01:27:02;;;;;;;25.27;11.27;;;;;;;3.67;100.00;98966.78;5028956;28;20053;-83
2021/11/21 01:29:41;;;;;;;19.90;11.88;;;;;;;3.60;100.00;98965.66;5032649;28;20386;-84
2021/11/21 01:32:11;;;;;;;22.13;11.75;;;;;;;3.75;100.00;98984.88;5030606;28;20076;-83
2021/11/21 01:34:41;;;;;;;25.20;12.23;;;;;;;3.56;100.00;98977.72;5032784;28;20140;-83
2021/11/21 01:37:10;;;;;;;;;;;;;;;3.52;100.00;98980.69;5033566;28;20412;-83
2021/11/21 01:39:40;;;;;;;24.08;11.60;;;;;;;3.42;100.00;98973.63;5032896;28;20380;-83
2021/11/21 01:42:07;;;;;;;31.17;12.23;;;;;;;3.49;100.00;98975.63;5037369;28;20401;-83
2021/11/21 01:44:34;;;;;;;25.15;12.10;;;;;;;3.45;100.00;98955.38;5034863;28;20053;-83
2021/11/21 01:47:12;;;;;;;22.45;12.32;;;;;;;3.61;100.00;98964.69;5036637;28;20080;-83
2021/11/21 01:49:41;;;;;;;22.33;11.75;;;;;;;3.65;100.00;98968.78;5029499;28;20477;-83
2021/11/21 01:52:24;;;;;;;22.20;12.82;;;;;;;3.54;100.00;98951.81;5036490;28;20103;-83
2021/11/21 01:54:58;;;;;;;23.60;13.02;;;;;;;3.64;100.00;98959.84;5036499;28;20065;-83
2021/11/21 01:57:30;;;;;;;21.25;10.40;;;;;;;3.54;100.00;98935.69;5037023;28;20065;-83
2021/11/21 02:00:09;;;;;;;21.52;11.88;;;;;;;3.59;100.00;98956.75;5036024;28;20042;-83
2021/11/21 02:02:43;;;;;;;21.15;10.60;;;;;;;3.49;100.00;98935.28;5033742;28;20572;-83
2021/11/21 02:05:14;;;;;;;17.50;9.77;;;;;;;3.56;100.00;98946.31;5036731;28;20484;-84
2021/11/21 02:07:55;;;;;;;18.85;10.65;;;;;;;3.50;100.00;98925.38;5036208;28;20477;-82
2021/11/21 02:10:34;;;;;;;19.50;10.55;;;;;;;3.52;100.00;98915.31;5034623;28;20073;-83
2021/11/21 02:13:07;;;;;;;22.08;11.32;;;;;;;3.60;100.00;98912.78;5036450;28;20061;-83
2021/11/21 02:15:35;;;;;;;18.50;10.20;;;;;;;3.57;100.00;98898.75;5036293;28;20053;-83
2021/11/21 02:18:05;;;;;;;19.33;10.75;;;;;;;3.64;100.00;98911.47;5034735;28;20057;-83
2021/11/21 02:20:49;;;;;;;17.88;10.27;;;;;;;3.57;100.00;98915.75;5036364;28;20145;-83
2021/11/21 02:23:18;;;;;;;15.30;8.68;;;;;;;3.57;100.00;98907.69;5036114;28;20056;-83
2021/11/21 02:25:47;;;;;;;15.57;7.75;;;;;;;3.75;100.00;98923.03;5035686;28;20049;-83
2021/11/21 02:28:23;;;;;;;15.68;8.63;;;;;;;3.77;100.00;98900.38;5034933;28;20053;-83
2021/11/21 02:30:50;;;;;;;16.35;7.97;;;;;;;3.82;100.00;98902.63;5019989;28;20045;-83
2021/11/21 02:33:24;;;;;;;16.15;7.75;;;;;;;3.69;100.00;98885.00;5029037;28;20642;-83
2021/11/21 02:36:15;;;;;;;17.17;8.30;;;;;;;3.70;100.00;98883.16;5029322;28;20092;-83
2021/11/21 02:38:48;;;;;;;17.08;8.55;;;;;;;3.64;100.00;98878.34;5035144;28;20056;-83
2021/11/21 02:41:24;;;;;;;15.05;8.30;;;;;;;3.63;100.00;98868.59;5035875;28;20093;-83
2021/11/21 02:43:53;;;;;;;16.20;8.13;;;;;;;3.57;100.00;98858.44;5035558;28;20138;-83
2021/11/21 02:46:25;;;;;;;15.57;8.50;;;;;;;3.73;100.00;98890.91;5034668;28;20049;-83
2021/11/21 02:48:58;;;;;;;17.67;8.43;;;;;;;3.61;100.00;98862.53;5030539;28;20123;-83
2021/11/21 02:51:27;;;;;;;20.83;10.02;;;;;;;3.63;100.00;98868.59;5032034;28;21359;-84
2021/11/21 02:53:55;;;;;;;16.77;8.85;;;;;;;3.65;100.00;98880.06;5032412;28;20068;-83
2021/11/21 02:56:27;;;;;;;20.42;10.63;;;;;;;3.45;100.00;98864.00;5035692;28;20050;-83
2021/11/21 02:58:54;;;;;;;18.85;10.52;;;;;;;3.48;100.00;98862.88;5033603;28;20149;-83
2021/11/21 03:04:10;;;;;;;16.48;8.90;;;;;;;3.66;100.00;98853.03;5033624;28;20053;-83
2021/11/21 03:06:48;;;;;;;20.70;10.75;;;;;;;3.70;100.00;98834.75;5034552;28;20052;-83
2021/11/21 03:09:24;;;;;;;21.25;10.02;;;;;;;3.69;100.00;98833.06;5031525;28;20444;-83
2021/11/21 03:12:00;;;;;;;18.38;10.05;;;;;;;3.79;100.00;98851.84;5035339;28;20053;-83
2021/11/21 03:14:34;;;;;;;21.48;10.52;;;;;;;3.78;100.00;98845.63;5032740;28;20425;-83
2021/11/21 03:17:11;;;;;;;21.95;11.27;;;;;;;3.65;100.00;98831.69;5032324;28;20077;-83
2021/11/21 03:19:48;;;;;;;18.98;10.00;;;;;;;3.72;100.00;98838.16;5030291;28;20417;-83
2021/11/21 03:22:37;;;;;;;;;;;;;;;;;;;;;
2021/11/21 03:25:07;;;;;;;19.05;9.25;;;;;;;3.67;100.00;98832.34;5034698;28;20370;-83
2021/11/21 03:27:41;;;;;;;17.88;9.93;;;;;;;3.66;100.00;98833.38;5028179;28;20058;-83
2021/11/21 03:30:09;;;;;;;21.23;10.80;;;;;;;3.65;100.00;98837.88;5031453;28;20057;-83
2021/11/21 03:32:41;;;;;;;19.75;9.80;;;;;;;3.54;100.00;98819.28;5034484;28;20058;-83
2021/11/21 03:35:14;;;;;;;21.73;9.60;;;;;;;3.64;100.00;98825.44;5034444;28;20045;-83
2021/11/21 03:37:56;;;;;;;19.88;10.18;;;;;;;3.54;100.00;98812.06;5030453;28;20052;-83
2021/11/21 03:40:26;;;;;;;19.08;9.50;;;;;;;3.59;100.00;98813.47;5033322;28;20525;-83
2021/11/21 03:42:55;;;;;;;;;;;;;;;3.64;100.00;98819.22;5035277;28;20049;-84
2021/11/21 03:45:25;;;;;;;22.52;10.60;;;;;;;3.66;100.00;98819.94;5034594;28;19921;-83
2021/11/21 03:47:54;;;;;;;;;;;;;;;3.68;100.00;98823.31;5035040;28;20048;-83
2021/11/21 03:50:22;;;;;;;16.92;8.85;;;;;;;3.66;100.00;98822.63;5034318;28;20388;-83
2021/11/21 03:52:56;;;;;;;20.20;10.10;;;;;;;3.53;100.00;98802.28;5035044;28;20050;-83
2021/11/21 03:55:32;;;;;;;16.55;8.80;;;;;;;3.60;100.00;98816.00;5014856;28;20108;-83
2021/11/21 03:57:59;;;;;;;20.60;9.38;;;;;;;3.41;100.00;98803.47;5029985;28;20046;-83
2021/11/21 04:00:58;;;;;;;20.80;10.45;;;;;;;3.51;100.00;98812.34;5034327;28;20045;-83
2021/11/21 04:03:32;;;;;;;17.63;9.57;;;;;;;3.53;100.00;98804.13;5034763;28;20085;-83
2021/11/21 04:06:02;;;;;;;16.98;8.57;;;;;;;3.45;100.00;98799.50;5034601;28;20548;-83
2021/11/21 04:08:44;;;;;;;17.63;9.05;;;;;;;3.35;100.00;98782.56;5034553;28;20339;-83
2021/11/21 04:11:16;;;;;;;13.93;8.07;;;;;;;3.48;100.00;98801.06;5034622;28;20053;-83
2021/11/21 04:13:43;;;;;;;14.68;8.23;;;;;;;3.41;100.00;98789.22;5029145;28;20089;-83
2021/11/21 04:16:11;;;;;;;15.63;7.70;;;;;;;3.35;100.00;98782.56;5028579;28;20053;-83
2021/11/21 04:18:42;;;;;;;20.05;9.05;;;;;;;3.34;100.00;98780.88;5047222;28;20045;-82
2021/11/21 04:21:10;;;;;;;17.05;8.85;;;;;;;3.32;100.00;98781.03;5039768;28;20065;-83
2021/11/21 04:23:42;;;;;;;14.57;7.57;;;;;;;3.41;100.00;98781.16;5039645;28;20049;-83
2021/11/21 04:26:15;;;;;;;16.73;7.72;;;;;;;3.49;100.00;98775.84;5047778;28;20117;-83
2021/11/21 04:28:46;;;;;;;20.33;9.13;;;;;;;3.45;100.00;98767.25;5038491;28;20053;-83
2021/11/21 04:31:15;;;;;;;17.85;8.30;;;;;;;3.48;100.00;98769.66;5034555;28;20053;-83
2021/11/21 04:33:52;;;;;;;19.67;9.32;;;;;;;3.46;100.00;98762.72;5032938;28;20507;-83
2021/11/21 04:36:19;;;;;;;13.80;7.28;;;;;;;3.53;100.00;98775.41;5035252;28;20041;-83
2021/11/21 04:38:48;;;;;;;13.82;7.50;;;;;;;3.56;100.00;98757.31;5032680;28;20755;-83
2021/11/21 04:41:15;;;;;;;13.15;6.65;;;;;;;3.49;100.00;98763.28;5033786;28;20042;-83
2021/11/21 04:43:44;;;;;;;13.55;7.55;;;;;;;3.36;100.00;98746.66;5032329;28;20050;-83
2021/11/21 04:46:14;;;;;;;15.48;6.20;;;;;;;3.36;100.00;98743.97;5033319;28;20049;-83
2021/11/21 04:48:47;;;;;;;12.30;6.93;;;;;;;3.45;100.00;98747.63;5033841;28;20374;-83
2021/11/21 04:51:16;;;;;;;12.68;6.55;;;;;;;3.48;100.00;98732.03;5033711;28;20064;-83
2021/11/21 04:53:47;;;;;;;16.13;9.35;;;;;;;3.42;100.00;98732.63;5033796;28;20140;-83
2021/11/21 04:56:24;;;;;;;18.15;10.00;;;;;;;3.46;100.00;98742.09;5014008;28;20077;-83
2021/11/21 04:58:52;;;;;;;19.25;10.27;;;;;;;3.46;100.00;98735.84;5014293;28;20050;-83
2021/11/21 05:01:25;;;;;;;19.10;10.60;;;;;;;3.44;100.00;98738.69;5033087;28;20127;-83
2021/11/21 05:03:52;;;;;;;28.23;14.32;;;;;;;3.42;100.00;98734.44;5033247;28;20055;-82
2021/11/21 05:06:25;;;;;;;26.73;13.35;;;;;;;3.32;100.00;98721.91;5032767;28;20413;-83
2021/11/21 05:08:55;;;;;;;26.30;13.65;;;;;;;3.46;100.00;98741.22;5033077;28;20076;-83
2021/11/21 05:11:24;;;;;;;29.20;14.35;;;;;;;3.55;100.00;98737.63;5033632;28;20049;-84
2021/11/21 05:13:57;;;;;;;21.77;11.93;;;;;;;3.43;100.00;98738.84;5033439;28;20480;-83
2021/11/21 05:16:31;;;;;;;26.48;12.55;;;;;;;3.27;100.00;98723.38;5017517;28;20048;-84
2021/11/21 05:19:02;;;;;;;25.23;12.82;;;;;;;3.31;100.00;98731.00;5013743;28;20054;-83
2021/11/21 05:21:34;;;;;;;25.20;12.45;;;;;;;3.31;100.00;98728.31;5033198;28;20055;-81
2021/11/21 05:24:08;;;;;;;23.40;12.15;;;;;;;3.26;100.00;98724.38;5033665;28;20068;-88
2021/11/21 05:26:43;;;;;;;26.10;12.20;;;;;;;3.19;100.00;98721.41;5033732;28;20076;-84
2021/11/21 05:29:25;;;;;;;22.73;11.07;;;;;;;3.24;100.00;98731.72;5033343;28;20076;-84
2021/11/21 05:31:51;;;;;;;21.52;11.45;;;;;;;3.24;100.00;98712.91;5033455;28;20049;-84
2021/11/21 05:34:19;;;;;;;23.63;11.60;;;;;;;3.43;100.00;98738.84;5033101;28;20041;-84
2021/11/21 05:36:46;;;;;;;27.75;11.27;;;;;;;3.41;100.00;98719.34;5033608;28;20053;-84
2021/11/21 05:39:16;;;;;;;21.40;10.88;;;;;;;3.33;100.00;98715.56;5029045;28;20042;-84
2021/11/21 05:41:44;;;;;;;22.10;11.40;;;;;;;3.43;100.00;98733.47;5027254;28;20132;-84
2021/11/21 05:44:11;;;;;;;21.42;10.43;;;;;;;3.36;100.00;98731.38;5033025;28;20049;-83
2021/11/21 05:46:38;;;;;;;19.65;9.38;;;;;;;3.24;100.00;98719.13;5033836;28;20405;-84
2021/11/21 05:49:05;;;;;;;21.38;10.07;;;;;;;3.39;100.00;98722.19;5032971;28;20111;-84
2021/11/21 05:51:31;;;;;;;24.50;11.45;;;;;;;3.26;100.00;98706.38;5033218;28;20079;-84
2021/11/21 05:53:58;;;;;;;18.23;9.65;;;;;;;3.26;100.00;98706.38;5033201;28;20053;-84
2021/11/21 05:56:26;;;;;;;19.05;10.55;;;;;;;3.24;100.00;98699.47;5033021;28;20053;-84
2021/11/21 05:58:54;;;;;;;21.33;9.48;;;;;;;3.22;100.00;98705.00;5032997;28;20057;-84
2021/11/21 06:01:22;;;;;;;24.15;9.85;;;;;;;3.18;100.00;98699.09;5023640;28;20045;-84
2021/11/21 06:03:50;;;;;;;16.60;9.32;;;;;;;3.22;100.00;98704.16;5033007;28;20076;-84
2021/11/21 06:06:17;;;;;;;20.73;10.32;;;;;;;3.21;100.00;98697.09;5032623;28;20049;-84
2021/11/21 06:08:44;;;;;;;20.08;9.85;;;;;;;3.30;100.00;98693.53;5020877;28;20053;-84
2021/11/21 06:11:11;;;;;;;17.48;9.65;;;;;;;3.30;100.00;98696.22;5029034;28;20084;-84
2021/11/21 06:13:38;;;;;;;14.40;7.75;;;;;;;3.32;100.00;98723.75;5028260;28;20049;-84
2021/11/21 06:16:07;;;;;;;14.95;7.88;;;;;;;3.26;100.00;98714.44;5033272;28;20072;-83
2021/11/21 06:18:33;;;;;;;15.85;7.90;;;;;;;3.26;100.00;98719.00;5032885;28;20057;-84
2021/11/21 06:21:01;;;;;;;18.50;9.30;;;;;;;3.27;100.00;98724.22;5032905;28;20056;-84
2021/11/21 06:23:32;;;;;;;14.82;7.35;;;;;;;3.21;100.00;98716.75;5032699;28;20053;-84
2021/11/21 06:26:01;;;;;;;15.63;7.88;;;;;;;3.39;100.00;98729.38;5032829;28;20072;-84
2021/11/21 06:28:28;;;;;;;24.13;8.77;;;;;;;3.38;100.00;98731.22;5035812;28;20049;-84
2021/11/21 06:30:55;;;;;;;17.58;7.90;;;;;;;3.38;100.00;98725.00;5036397;28;21576;-84
2021/11/21 06:33:27;;;;;;;15.02;7.10;;;;;;;3.33;100.00;98707.50;5035561;28;20124;-84
2021/11/21 06:36:06;;;;;;;14.40;6.70;;;;;;;3.40;100.00;98712.25;5036449;28;20493;-84
2021/11/21 06:38:33;;;;;;;15.23;7.18;;;;;;;3.38;100.00;98708.88;5035803;28;20064;-84
2021/11/21 06:41:00;;;;;;;21.13;9.63;;;;;;;3.38;100.00;98711.59;5036262;28;20132;-84
2021/11/21 06:43:27;;;;;;;17.52;8.10;;;;;;;3.32;100.00;98721.91;5035082;28;21000;-84
2021/11/21 06:45:54;;;;;;;17.17;7.88;;;;;;;3.41;100.00;98736.28;5035806;28;20044;-84
2021/11/21 06:48:26;;;;;;;15.93;8.07;;;;;;;3.51;100.00;98742.47;5035740;28;20405;-84
2021/11/21 06:50:56;;;;;;;24.10;8.32;;;;;;;3.35;100.00;98732.34;5036146;28;20053;-84
2021/11/21 06:53:23;;;;;;;;;;;;;;;3.32;100.00;98739.88;5036762;28;20041;-83
2021/11/21 06:55:50;;;;;;;23.17;9.85;;;;;;;3.34;100.00;98728.00;5035884;28;19975;-84
2021/11/21 06:58:25;;;;;;;19.98;9.50;;;;;;;3.09;100.00;98723.31;5035512;28;20088;-84
2021/11/21 07:00:52;;;;;;;23.45;10.00;;;;;;;3.11;100.00;98746.31;5032989;28;20046;-83
2021/11/21 07:03:19;;;;;;;22.48;10.45;;;;;;;3.03;100.00;98731.94;5034459;28;20544;-84
2021/11/21 07:05:56;;;;;;;24.10;10.55;;;;;;;3.01;100.00;98727.59;5036171;28;20137;-84
2021/11/21 07:08:25;;;;;;;21.45;10.30;;;;;;;3.12;100.00;98749.88;5034498;28;20055;-84
2021/11/21 07:10:52;;;;;;;25.77;9.98;;;;;;;3.14;100.00;98745.19;5035682;28;20045;-84
2021/11/21 07:13:21;;;;;;;19.95;10.00;;;;;;;3.09;100.00;98755.56;5035333;28;20099;-84
2021/11/21 07:15:48;;;;;;;19.13;10.10;;;;;;;3.16;100.00;98756.63;5035272;28;20041;-84
2021/11/21 07:18:15;;;;;;;22.95;10.07;;;;;;;3.07;100.00;98750.31;5034488;28;20045;-83
2021/11/21 07:20:43;;;;;;;21.52;9.40;;;;;;;2.99;100.00;98758.25;5035297;28;20052;-84
2021/11/21 07:23:17;;;;;;;18.30;8.63;;;;;;;2.98;100.00;98756.56;5035641;28;20053;-83
2021/11/21 07:25:44;;;;;;;21.95;8.07;;;;;;;2.92;100.00;98754.44;5035198;28;20057;-83
2021/11/21 07:28:10;;;;;;;16.30;9.63;;;;;;;2.94;100.00;98752.50;5034924;28;20095;-84
2021/11/21 07:30:41;;;;;;;21.65;9.75;;;;;;;2.90;100.00;98741.19;5035236;28;20060;-83
2021/11/21 07:33:07;;;;;;;;;;;;;;;3.03;100.00;98753.41;5016089;28;20058;-84
2021/11/21 07:35:34;;;;;;;25.40;10.55;;;;;;;2.93;100.00;98742.72;5034518;28;19921;-84
2021/11/21 07:38:01;;;;;;;22.90;10.27;;;;;;;2.97;100.00;98750.34;5034427;28;20049;-84
2021/11/21 07:40:36;;;;;;;22.08;10.45;;;;;;;3.00;100.00;98738.47;5034671;28;20045;-84
2021/11/21 07:43:04;;;;;;;25.67;11.43;;;;;;;3.00;100.00;98760.78;5035052;28;20050;-84
2021/11/21 07:45:31;;;;;;;23.60;11.85;;;;;;;2.95;100.00;98754.16;5034616;28;20053;-84
2021/11/21 07:48:00;;;;;;;31.17;13.98;;;;;;;2.82;100.00;98739.22;5034458;28;20049;-84
2021/11/21 07:50:27;;;;;;;27.23;13.60;;;;;;;2.90;100.00;98753.75;5030015;28;20046;-83
2021/11/21 07:52:59;;;;;;;27.45;12.77;;;;;;;2.88;100.00;98734.28;5034278;28;20049;-84
2021/11/21 07:55:26;;;;;;;25.83;12.32;;;;;;;2.94;100.00;98764.06;5034905;28;20493;-83
2021/11/21 07:58:00;;;;;;;27.88;13.00;;;;;;;2.92;100.00;98751.78;5034224;28;20080;-84
2021/11/21 08:00:27;;;;;;;30.08;14.20;;;;;;;2.87;100.00;98746.00;5015358;28;20046;-83
2021/11/21 08:02:54;;;;;;;32.30;13.65;;;;;;;2.79;100.00;98739.50;5022934;28;20049;-84
2021/11/21 08:05:21;;;;;;;37.03;15.57;;;;;;;2.86;100.00;98742.47;5018451;28;20416;-83
2021/11/21 08:07:51;;;;;;;31.65;14.40;;;;;;;2.88;100.00;98759.28;5034032;28;20528;-84
2021/11/21 08:10:20;;;;;;;31.80;15.43;;;;;;;2.82;100.00;98751.81;5034451;28;20053;-84
2021/11/21 08:12:50;;;;;;;30.23;13.35;;;;;;;2.85;100.00;98746.16;5034011;28;20056;-83
2021/11/21 08:15:20;;;;;;;31.80;14.50;;;;;;;2.90;100.00;98734.97;5034679;28;20501;-83
2021/11/21 08:17:48;;;;;;;26.65;12.60;;;;;;;3.01;100.00;98758.94;5033934;28;20065;-83
2021/11/21 08:20:17;;;;;;;29.17;14.23;;;;;;;2.99;100.00;98739.47;5034379;28;20062;-84
2021/11/21 08:22:44;;;;;;;31.45;13.90;;;;;;;2.93;100.00;98735.50;5034117;28;20049;-84
2021/11/21 08:25:12;;;;;;;31.45;14.18;;;;;;;2.91;100.00;98740.19;5024260;28;20052;-83
2021/11/21 08:27:42;;;;;;;29.75;14.13;;;;;;;2.97;100.00;98747.66;5033542;28;20548;-83
2021/11/21 08:30:10;;;;;;;27.90;15.07;;;;;;;2.90;100.00;98740.34;5033773;28;20052;-87
2021/11/21 08:32:39;;;;;;;25.88;12.68;;;;;;;2.91;100.00;98737.50;5033998;28;20057;-84
2021/11/21 08:35:07;;;;;;;32.50;14.15;;;;;;;2.91;100.00;98728.63;5033955;28;20507;-84
2021/11/21 08:37:39;;;;;;;32.60;15.10;;;;;;;2.98;100.00;98735.94;5033391;28;20053;-83
2021/11/21 08:40:07;;;;;;;29.40;13.93;;;;;;;2.89;100.00;98723.41;5034011;28;20060;-84
2021/11/21 08:42:36;;;;;;;23.90;11.82;;;;;;;2.78;100.00;98734.28;5033494;28;20053;-84
2021/11/21 08:45:04;;;;;;;23.35;11.43;;;;;;;2.86;100.00;98744.31;5034262;28;20041;-84
2021/11/21 08:47:34;;;;;;;29.30;14.45;;;;;;;2.78;100.00;98734.28;5033885;28;20072;-84
2021/11/21 08:50:02;;;;;;;31.73;14.48;;;;;;;2.81;100.00;98734.84;5033260;28;20056;-84
2021/11/21 08:52:29;;;;;;;35.22;14.52;;;;;;;2.87;100.00;98746.00;5034106;28;20045;-84
2021/11/21 08:54:56;;;;;;;31.42;12.48;;;;;;;2.78;100.00;98736.97;5033868;28;20050;-84
2021/11/21 08:57:23;;;;;;;26.92;12.75;;;;;;;2.85;100.00;98756.06;5033235;28;20114;-84
2021/11/21 08:59:50;;;;;;;32.28;13.40;;;;;;;3.00;100.00;98752.72;5033331;28;20493;-84
2021/11/21 09:02:17;;;;;;;27.85;13.60;;;;;;;2.79;100.00;98727.94;5033540;28;20049;-84
2021/11/21 09:04:47;;;;;;;35.85;15.32;;;;;;;2.95;100.00;98752.34;5034756;28;20045;-84
2021/11/21 09:07:15;;;;;;;35.28;14.30;;;;;;;2.96;100.00;98734.38;5033267;28;20059;-83
2021/11/21 09:09:43;;;;;;;30.15;13.48;;;;;;;3.12;100.00;98749.88;5032854;28;20386;-84
2021/11/21 09:12:13;;;;;;;34.72;13.50;;;;;;;3.10;100.00;98755.41;5033274;28;20049;-84
2021/11/21 09:14:46;;;;;;;32.83;13.32;;;;;;;3.15;100.00;98755.78;5033831;28;20132;-84
2021/11/21 09:17:13;;;;;;;24.10;12.20;;;;;;;3.06;100.00;98753.16;5033522;28;20053;-84
2021/11/21 09:19:41;;;;;;;30.10;11.73;;;;;;;3.19;100.00;98759.88;5032188;28;20059;-84
2021/11/21 09:22:08;;;;;;;25.42;11.45;;;;;;;3.07;100.00;98754.84;5033458;28;20041;-84
2021/11/21 09:24:36;;;;;;;22.08;10.43;;;;;;;3.05;100.00;98729.97;5032854;28;20053;-84
2021/11/21 09:27:06;;;;;;;22.10;10.57;;;;;;;3.07;100.00;98738.72;5032893;28;20052;-84
2021/11/21 09:29:33;;;;;;;21.77;9.02;;;;;;;2.99;100.00;98734.09;5032152;28;20485;-84
2021/11/21 09:31:59;;;;;;;17.38;9.18;;;;;;;3.09;100.00;98737.59;5032920;28;20045;-84
2021/11/21 09:34:26;;;;;;;16.48;8.05;;;;;;;3.15;100.00;98753.09;5032486;28;20056;-84
2021/11/21 09:36:53;;;;;;;19.00;9.45;;;;;;;3.00;100.00;98749.22;5033053;28;20447;-84
2021/11/21 09:39:20;;;;;;;17.02;8.45;;;;;;;2.86;100.00;98755.91;5032543;28;20481;-84
2021/11/21 09:41:48;;;;;;;19.85;7.07;;;;;;;2.77;100.00;98754.06;5033240;28;20068;-84
2021/11/21 09:44:15;;;;;;;14.82;7.60;;;;;;;2.80;100.00;98743.03;5033001;28;20049;-84
2021/11/21 09:46:48;;;;;;;13.20;5.80;;;;;;;2.74;100.00;98731.06;5031509;28;20069;-84
2021/11/21 09:49:15;;;;;;;14.23;7.72;;;;;;;2.78;100.00;98740.50;5032984;28;20507;-84
2021/11/21 09:51:44;;;;;;;14.38;7.25;;;;;;;2.95;100.00;98751.47;5017982;28;20042;-84
2021/11/21 09:54:11;;;;;;;18.00;8.65;;;;;;;2.99;100.00;98736.78;5033253;28;20628;-84
2021/11/21 09:56:37;;;;;;;13.13;7.07;;;;;;;3.00;100.00;98743.84;5033104;28;20053;-84
2021/11/21 09:59:06;;;;;;;17.02;7.68;;;;;;;2.97;100.00;98733.41;5032781;28;20125;-84
2021/11/21 10:01:40;;;;;;;12.23;6.35;;;;;;;3.05;100.00;98738.88;5035130;28;20136;-84
2021/11/21 10:04:10;;;;;;;14.73;7.05;;;;;;;3.12;100.00;98741.81;5035429;28;20057;-84
2021/11/21 10:06:44;;;;;;;12.88;6.80;;;;;;;3.23;100.00;98738.94;5017038;28;20050;-84
2021/11/21 10:09:11;;;;;;;11.43;5.82;;;;;;;3.22;100.00;98739.91;5033940;28;20417;-84
2021/11/21 10:12:00;;;;;;;19.35;7.60;;;;;;;3.19;100.00;98730.34;5036934;28;20060;-83
2021/11/21 10:14:29;;;;;;;14.07;6.35;;;;;;;3.18;100.00;98730.47;5037117;28;20060;-84
2021/11/21 10:16:55;;;;;;;10.70;6.50;;;;;;;2.96;100.00;98713.72;5036768;28;20060;-84
2021/11/21 10:19:22;;;;;;;15.02;7.25;;;;;;;2.97;100.00;98710.06;5035700;28;20045;-84
2021/11/21 10:21:54;;;;;;;13.25;6.63;;;;;;;3.11;100.00;98727.53;5035482;28;20053;-84
2021/11/21 10:24:25;;;;;;;11.60;6.25;;;;;;;3.04;100.00;98694.22;5032532;28;20115;-84
2021/11/21 10:27:11;;;;;;;11.40;5.78;;;;;;;3.03;100.00;98691.66;5036663;28;20091;-84
2021/11/21 10:29:41;;;;;;;10.65;5.50;;;;;;;3.17;100.00;98702.75;5036172;28;20076;-84
2021/11/21 10:32:16;;;;;;;12.48;5.80;;;;;;;3.22;100.00;98698.78;5035117;28;20057;-84
2021/11/21 10:34:49;;;;;;;10.52;5.47;;;;;;;3.21;100.00;98695.25;5035680;28;20049;-84
2021/11/21 10:37:17;;;;;;;7.88;5.13;;;;;;;3.03;100.00;98681.78;5035484;28;20492;-84
2021/11/21 10:39:46;;;;;;;8.65;4.57;;;;;;;2.94;100.00;98682.69;5029452;28;20077;-84
2021/11/21 10:42:24;;;;;;;8.93;4.00;;;;;;;3.05;100.00;98677.09;5035554;28;20046;-84
2021/11/21 10:44:54;;;;;;;8.90;4.20;;;;;;;3.13;100.00;98693.31;5036505;28;20057;-83
2021/11/21 10:47:21;;;;;;;8.27;3.67;;;;;;;2.99;100.00;98675.00;5035847;28;20045;-84
2021/11/21 10:49:52;;;;;;;6.85;3.38;;;;;;;3.09;100.00;98696.47;5035244;28;20057;-83
2021/11/21 10:52:21;;;;;;;7.18;3.55;;;;;;;3.01;100.00;98686.44;5016226;28;20054;-84
2021/11/21 10:54:57;;;;;;;9.18;4.63;;;;;;;3.09;100.00;98678.50;5021691;28;20417;-84
2021/11/21 10:57:26;;;;;;;9.68;4.80;;;;;;;3.09;100.00;98683.03;5035157;28;20046;-84
2021/11/21 10:59:56;;;;;;;7.72;4.22;;;;;;;2.99;100.00;98667.78;5035744;28;20460;-84
2021/11/21 11:02:25;;;;;;;7.03;3.83;;;;;;;3.00;100.00;98677.53;5035616;28;20057;-85
2021/11/21 11:05:04;;;;;;;5.60;2.95;;;;;;;2.92;100.00;98677.44;5035238;28;20054;-84
2021/11/21 11:07:36;;;;;;;6.47;3.40;;;;;;;2.97;100.00;98672.47;5035204;28;20057;-84
2021/11/21 11:10:06;;;;;;;8.15;4.65;;;;;;;2.89;100.00;98652.72;5035375;28;20071;-84
2021/11/21 11:12:33;;;;;;;5.72;3.65;;;;;;;2.87;100.00;98654.72;5034456;28;20444;-84
2021/11/21 11:15:02;;;;;;;4.35;3.00;;;;;;;2.91;100.00;98656.13;5033938;28;20060;-84
2021/11/21 11:17:29;;;;;;;6.75;3.75;;;;;;;2.93;100.00;98660.31;5034306;28;20049;-84
2021/11/21 11:19:58;;;;;;;7.10;4.00;;;;;;;3.12;100.00;98674.69;5034982;28;20057;-85
2021/11/21 11:22:25;;;;;;;10.00;4.13;;;;;;;3.10;100.00;98657.84;5034094;28;20042;-84
2021/11/21 11:24:54;;;;;;;7.60;4.28;;;;;;;3.19;100.00;98673.91;5034830;28;20045;-84
2021/11/21 11:27:33;;;;;;;8.38;4.20;;;;;;;3.11;100.00;98651.47;5034954;28;20469;-84
2021/11/21 11:30:04;;;;;;;8.55;4.72;;;;;;;3.15;100.00;98656.41;5035262;28;20053;-84
2021/11/21 11:32:36;;;;;;;6.75;4.32;;;;;;;3.14;100.00;98657.38;5033842;28;20049;-84
2021/11/21 11:35:04;;;;;;;6.55;4.32;;;;;;;3.12;100.00;98655.88;5034999;28;20065;-84
2021/11/21 11:37:43;;;;;;;9.95;4.53;;;;;;;3.16;100.00;98651.88;5015097;28;20056;-84
2021/11/21 11:40:44;;;;;;;7.45;4.80;;;;;;;3.28;100.00;98655.19;5015291;28;20069;-84
2021/11/21 11:43:33;;;;;;;6.75;4.32;;;;;;;3.19;100.00;98646.19;5011645;28;20042;-84